sensor_id;sensor_type;location;lat;lon;timestamp;pressure;altitude;pressure_sealevel;temperature;humidity
74794;BME280;63320;50.768;6.724;2022-11-20T00:01:26;99828.31;;;4.84;73.79
74794;BME280;63320;50.768;6.724;2022-11-20T00:03:53;99825.13;;;4.74;73.95
74794;BME280;63320;50.768;6.724;2022-11-20T00:06:19;99827.16;;;4.64;74.10
74794;BME280;63320;50.768;6.724;2022-11-20T00:08:45;99820.63;;;4.51;74.32
74794;BME280;63320;50.768;6.724;2022-11-20T00:11:13;99817.97;;;4.53;73.71
74794;BME280;63320;50.768;6.724;2022-11-20T00:13:38;99814.72;;;4.74;73.96
74794;BME280;63320;50.768;6.724;2022-11-20T00:16:08;99813.94;;;4.72;73.70
74794;BME280;63320;50.768;6.724;2022-11-20T00:18:34;99812.19;;;4.71;73.68
74794;BME280;63320;50.768;6.724;2022-11-20T00:21:03;99809.22;;;4.83;73.67
74794;BME280;63320;50.768;6.724;2022-11-20T00:23:28;99823.66;;;4.93;73.70
74794;BME280;63320;50.768;6.724;2022-11-20T00:25:54;99812.75;;;5.09;72.71
74794;BME280;63320;50.768;6.724;2022-11-20T00:28:19;99804.72;;;4.60;74.29
74794;BME280;63320;50.768;6.724;2022-11-20T00:30:44;99807.84;;;4.72;74.02
74794;BME280;63320;50.768;6.724;2022-11-20T00:33:11;99817.47;;;4.98;73.17
74794;BME280;63320;50.768;6.724;2022-11-20T00:35:36;99817.53;;;4.68;73.97
74794;BME280;63320;50.768;6.724;2022-11-20T00:38:02;99809.72;;;4.66;74.16
74794;BME280;63320;50.768;6.724;2022-11-20T00:40:27;99811.16;;;4.77;74.43
74794;BME280;63320;50.768;6.724;2022-11-20T00:42:52;99808.16;;;4.62;73.48
74794;BME280;63320;50.768;6.724;2022-11-20T00:45:18;99814.28;;;4.60;74.50
74794;BME280;63320;50.768;6.724;2022-11-20T00:47:43;99814.66;;;4.48;75.28
74794;BME280;63320;50.768;6.724;2022-11-20T00:50:10;99820.06;;;4.70;74.12
74794;BME280;63320;50.768;6.724;2022-11-20T00:52:35;99817.97;;;4.53;74.41
74794;BME280;63320;50.768;6.724;2022-11-20T00:55:00;99824.16;;;4.78;73.99
74794;BME280;63320;50.768;6.724;2022-11-20T00:57:26;99808.50;;;4.50;74.50
74794;BME280;63320;50.768;6.724;2022-11-20T00:59:51;99814.78;;;4.73;73.62
74794;BME280;63320;50.768;6.724;2022-11-20T01:02:16;99805.53;;;4.62;74.04
74794;BME280;63320;50.768;6.724;2022-11-20T01:04:42;99807.03;;;4.70;73.64
74794;BME280;63320;50.768;6.724;2022-11-20T01:07:08;99814.69;;;4.46;74.62
74794;BME280;63320;50.768;6.724;2022-11-20T01:09:34;99808.28;;;4.58;74.32
74794;BME280;63320;50.768;6.724;2022-11-20T01:11:59;99812.53;;;4.60;74.19
74794;BME280;63320;50.768;6.724;2022-11-20T01:14:24;99811.38;;;4.41;74.24
74794;BME280;63320;50.768;6.724;2022-11-20T01:16:51;99824.94;;;4.52;73.84
74794;BME280;63320;50.768;6.724;2022-11-20T01:19:18;99818.13;;;4.47;74.14
74794;BME280;63320;50.768;6.724;2022-11-20T01:21:46;99805.00;;;4.51;74.53
74794;BME280;63320;50.768;6.724;2022-11-20T01:24:15;99809.63;;;4.41;74.53
74794;BME280;63320;50.768;6.724;2022-11-20T01:26:43;99800.50;;;4.56;73.99
74794;BME280;63320;50.768;6.724;2022-11-20T01:29:10;99792.78;;;4.53;73.90
74794;BME280;63320;50.768;6.724;2022-11-20T01:31:37;99793.75;;;4.79;73.68
74794;BME280;63320;50.768;6.724;2022-11-20T01:34:05;99789.91;;;4.62;74.25
74794;BME280;63320;50.768;6.724;2022-11-20T01:36:32;99781.09;;;4.38;74.60
74794;BME280;63320;50.768;6.724;2022-11-20T01:38:59;99785.19;;;4.46;74.88
74794;BME280;63320;50.768;6.724;2022-11-20T01:41:27;99790.19;;;4.53;74.81
74794;BME280;63320;50.768;6.724;2022-11-20T01:43:52;99789.94;;;4.61;74.48
74794;BME280;63320;50.768;6.724;2022-11-20T01:46:18;99800.09;;;4.70;74.15
74794;BME280;63320;50.768;6.724;2022-11-20T01:48:51;99800.84;;;4.74;74.18
74794;BME280;63320;50.768;6.724;2022-11-20T01:51:25;99790.09;;;4.84;73.71
74794;BME280;63320;50.768;6.724;2022-11-20T01:53:52;99793.63;;;4.82;73.18
74794;BME280;63320;50.768;6.724;2022-11-20T01:56:19;99786.63;;;4.56;74.96
74794;BME280;63320;50.768;6.724;2022-11-20T01:58:48;99791.03;;;4.82;73.93
74794;BME280;63320;50.768;6.724;2022-11-20T02:01:16;99789.91;;;4.62;74.61
74794;BME280;63320;50.768;6.724;2022-11-20T02:03:41;99792.47;;;4.64;74.61
74794;BME280;63320;50.768;6.724;2022-11-20T02:06:13;99788.69;;;4.74;73.98
74794;BME280;63320;50.768;6.724;2022-11-20T02:08:40;99787.47;;;4.56;74.38
74794;BME280;63320;50.768;6.724;2022-11-20T02:11:05;99781.09;;;4.66;74.38
74794;BME280;63320;50.768;6.724;2022-11-20T02:13:31;99784.47;;;4.97;73.25
74794;BME280;63320;50.768;6.724;2022-11-20T02:15:57;99782.47;;;4.50;73.81
74794;BME280;63320;50.768;6.724;2022-11-20T02:18:23;99782.69;;;4.72;73.72
74794;BME280;63320;50.768;6.724;2022-11-20T02:20:53;99783.03;;;4.60;73.95
74794;BME280;63320;50.768;6.724;2022-11-20T02:23:25;99775.50;;;4.51;74.61
74794;BME280;63320;50.768;6.724;2022-11-20T02:25:55;99766.09;;;4.75;73.54
74794;BME280;63320;50.768;6.724;2022-11-20T02:28:22;99762.94;;;4.35;73.94
74794;BME280;63320;50.768;6.724;2022-11-20T02:30:48;99763.34;;;4.51;73.69
74794;BME280;63320;50.768;6.724;2022-11-20T02:33:13;99763.91;;;4.61;73.45
74794;BME280;63320;50.768;6.724;2022-11-20T02:35:42;99763.44;;;4.48;74.35
74794;BME280;63320;50.768;6.724;2022-11-20T02:38:08;99760.75;;;4.22;74.98
74794;BME280;63320;50.768;6.724;2022-11-20T02:40:33;99775.56;;;4.49;74.10
74794;BME280;63320;50.768;6.724;2022-11-20T02:43:00;99785.78;;;4.27;74.48
74794;BME280;63320;50.768;6.724;2022-11-20T02:45:25;99786.03;;;4.48;74.05
74794;BME280;63320;50.768;6.724;2022-11-20T02:47:51;99784.94;;;4.27;73.69
74794;BME280;63320;50.768;6.724;2022-11-20T02:50:17;99782.16;;;4.31;73.77
74794;BME280;63320;50.768;6.724;2022-11-20T02:52:42;99791.25;;;4.18;74.64
74794;BME280;63320;50.768;6.724;2022-11-20T02:55:08;99779.84;;;4.22;75.29
74794;BME280;63320;50.768;6.724;2022-11-20T02:57:33;99781.72;;;4.75;72.75
74794;BME280;63320;50.768;6.724;2022-11-20T03:00:00;99778.59;;;4.63;72.75
74794;BME280;63320;50.768;6.724;2022-11-20T03:02:25;99783.47;;;4.74;73.44
74794;BME280;63320;50.768;6.724;2022-11-20T03:04:51;99776.50;;;4.75;73.13
74794;BME280;63320;50.768;6.724;2022-11-20T03:07:16;99776.06;;;4.62;73.77
74794;BME280;63320;50.768;6.724;2022-11-20T03:09:41;99773.13;;;4.71;73.75
74794;BME280;63320;50.768;6.724;2022-11-20T03:12:07;99772.47;;;4.92;72.58
74794;BME280;63320;50.768;6.724;2022-11-20T03:14:32;99771.50;;;4.95;72.49
74794;BME280;63320;50.768;6.724;2022-11-20T03:16:59;99768.13;;;4.93;72.20
74794;BME280;63320;50.768;6.724;2022-11-20T03:19:24;99770.50;;;4.73;73.48
74794;BME280;63320;50.768;6.724;2022-11-20T03:21:50;99764.03;;;4.84;72.97
74794;BME280;63320;50.768;6.724;2022-11-20T03:24:15;99768.97;;;4.93;72.99
74794;BME280;63320;50.768;6.724;2022-11-20T03:26:41;99761.78;;;5.00;72.20
74794;BME280;63320;50.768;6.724;2022-11-20T03:29:07;99758.41;;;4.70;73.08
74794;BME280;63320;50.768;6.724;2022-11-20T03:31:34;99747.28;;;4.65;74.03
74794;BME280;63320;50.768;6.724;2022-11-20T03:34:02;99740.09;;;4.45;74.85
74794;BME280;63320;50.768;6.724;2022-11-20T03:36:28;99740.47;;;4.61;74.48
74794;BME280;63320;50.768;6.724;2022-11-20T03:38:54;99737.22;;;4.82;74.11
74794;BME280;63320;50.768;6.724;2022-11-20T03:41:21;99726.25;;;4.71;74.39
74794;BME280;63320;50.768;6.724;2022-11-20T03:43:48;99724.53;;;4.44;74.89
74794;BME280;63320;50.768;6.724;2022-11-20T03:46:13;99727.72;;;4.52;74.97
74794;BME280;63320;50.768;6.724;2022-11-20T03:48:39;99722.94;;;4.39;75.77
74794;BME280;63320;50.768;6.724;2022-11-20T03:51:10;99733.97;;;4.48;75.86
74794;BME280;63320;50.768;6.724;2022-11-20T03:53:36;99728.06;;;4.43;75.92
74794;BME280;63320;50.768;6.724;2022-11-20T03:56:02;99735.66;;;4.49;75.76
74794;BME280;63320;50.768;6.724;2022-11-20T03:58:27;99729.81;;;4.42;75.43
74794;BME280;63320;50.768;6.724;2022-11-20T04:00:53;99726.50;;;4.37;75.97
74794;BME280;63320;50.768;6.724;2022-11-20T04:03:18;99726.56;;;4.34;76.38
74794;BME280;63320;50.768;6.724;2022-11-20T04:05:43;99723.06;;;4.35;76.45
74794;BME280;63320;50.768;6.724;2022-11-20T04:08:10;99727.09;;;4.45;75.71
74794;BME280;63320;50.768;6.724;2022-11-20T04:10:35;99724.06;;;4.31;76.20
74794;BME280;63320;50.768;6.724;2022-11-20T04:13:01;99725.81;;;4.30;76.48
74794;BME280;63320;50.768;6.724;2022-11-20T04:15:26;99730.66;;;4.43;76.35
74794;BME280;63320;50.768;6.724;2022-11-20T04:17:51;99724.75;;;4.37;75.75
74794;BME280;63320;50.768;6.724;2022-11-20T04:20:17;99728.06;;;4.41;75.86
74794;BME280;63320;50.768;6.724;2022-11-20T04:22:42;99731.06;;;4.29;76.23
74794;BME280;63320;50.768;6.724;2022-11-20T04:25:09;99728.97;;;4.40;75.84
74794;BME280;63320;50.768;6.724;2022-11-20T04:27:34;99725.38;;;4.44;76.65
74794;BME280;63320;50.768;6.724;2022-11-20T04:30:00;99724.44;;;4.47;75.77
74794;BME280;63320;50.768;6.724;2022-11-20T04:32:25;99721.28;;;4.37;76.54
74794;BME280;63320;50.768;6.724;2022-11-20T04:34:50;99721.41;;;4.60;75.78
74794;BME280;63320;50.768;6.724;2022-11-20T04:37:16;99726.16;;;4.48;76.15
74794;BME280;63320;50.768;6.724;2022-11-20T04:39:41;99722.69;;;4.47;75.96
74794;BME280;63320;50.768;6.724;2022-11-20T04:42:09;99728.66;;;4.51;76.10
74794;BME280;63320;50.768;6.724;2022-11-20T04:44:35;99724.28;;;4.51;76.02
74794;BME280;63320;50.768;6.724;2022-11-20T04:47:00;99726.47;;;4.65;75.40
74794;BME280;63320;50.768;6.724;2022-11-20T04:49:25;99732.56;;;4.36;76.88
74794;BME280;63320;50.768;6.724;2022-11-20T04:51:52;99737.31;;;4.51;75.91
74794;BME280;63320;50.768;6.724;2022-11-20T04:54:18;99731.03;;;4.58;76.42
74794;BME280;63320;50.768;6.724;2022-11-20T04:56:43;99733.25;;;4.43;75.61
74794;BME280;63320;50.768;6.724;2022-11-20T04:59:10;99734.25;;;4.38;76.17
74794;BME280;63320;50.768;6.724;2022-11-20T05:01:35;99736.44;;;4.51;75.82
74794;BME280;63320;50.768;6.724;2022-11-20T05:04:00;99728.50;;;4.55;75.61
74794;BME280;63320;50.768;6.724;2022-11-20T05:06:26;99724.50;;;4.15;76.20
74794;BME280;63320;50.768;6.724;2022-11-20T05:08:51;99725.59;;;4.38;75.62
74794;BME280;63320;50.768;6.724;2022-11-20T05:11:18;99720.72;;;4.26;76.45
74794;BME280;63320;50.768;6.724;2022-11-20T05:13:44;99718.97;;;4.28;76.63
74794;BME280;63320;50.768;6.724;2022-11-20T05:16:12;99727.50;;;4.31;76.49
74794;BME280;63320;50.768;6.724;2022-11-20T05:18:39;99731.06;;;4.29;77.09
74794;BME280;63320;50.768;6.724;2022-11-20T05:21:05;99736.03;;;4.36;76.73
74794;BME280;63320;50.768;6.724;2022-11-20T05:23:31;99735.16;;;4.36;76.77
74794;BME280;63320;50.768;6.724;2022-11-20T05:25:57;99737.25;;;4.25;76.90
74794;BME280;63320;50.768;6.724;2022-11-20T05:28:23;99734.56;;;4.56;76.40
74794;BME280;63320;50.768;6.724;2022-11-20T05:30:48;99734.75;;;4.50;75.74
74794;BME280;63320;50.768;6.724;2022-11-20T05:33:16;99733.47;;;4.63;75.80
74794;BME280;63320;50.768;6.724;2022-11-20T05:35:41;99735.41;;;4.56;76.19
74794;BME280;63320;50.768;6.724;2022-11-20T05:38:07;99729.88;;;4.39;76.57
74794;BME280;63320;50.768;6.724;2022-11-20T05:40:32;99729.81;;;4.40;76.52
74794;BME280;63320;50.768;6.724;2022-11-20T05:42:57;99731.59;;;4.40;76.35
74794;BME280;63320;50.768;6.724;2022-11-20T05:45:23;99731.69;;;4.37;77.06
74794;BME280;63320;50.768;6.724;2022-11-20T05:47:48;99730.28;;;3.97;78.42
74794;BME280;63320;50.768;6.724;2022-11-20T05:50:15;99728.22;;;4.08;78.08
74794;BME280;63320;50.768;6.724;2022-11-20T05:52:40;99730.44;;;4.21;77.57
74794;BME280;63320;50.768;6.724;2022-11-20T05:55:07;99730.50;;;4.47;77.45
74794;BME280;63320;50.768;6.724;2022-11-20T05:57:32;99735.09;;;4.09;77.59
74794;BME280;63320;50.768;6.724;2022-11-20T05:59:58;99731.91;;;4.29;77.41
74794;BME280;63320;50.768;6.724;2022-11-20T06:02:23;99725.88;;;4.29;77.96
74794;BME280;63320;50.768;6.724;2022-11-20T06:04:49;99728.78;;;4.46;77.36
74794;BME280;63320;50.768;6.724;2022-11-20T06:07:15;99728.97;;;4.40;77.84
74794;BME280;63320;50.768;6.724;2022-11-20T06:09:41;99729.44;;;4.25;77.93
74794;BME280;63320;50.768;6.724;2022-11-20T06:12:06;99725.91;;;4.27;77.64
74794;BME280;63320;50.768;6.724;2022-11-20T06:14:32;99721.03;;;4.45;77.03
74794;BME280;63320;50.768;6.724;2022-11-20T06:16:58;99720.84;;;4.51;76.55
74794;BME280;63320;50.768;6.724;2022-11-20T06:19:23;99722.72;;;4.46;77.45
74794;BME280;63320;50.768;6.724;2022-11-20T06:21:48;99722.50;;;4.53;77.30
74794;BME280;63320;50.768;6.724;2022-11-20T06:24:16;99726.38;;;4.40;77.07
74794;BME280;63320;50.768;6.724;2022-11-20T06:26:41;99724.81;;;4.34;77.35
74794;BME280;63320;50.768;6.724;2022-11-20T06:29:06;99724.94;;;4.30;77.06
74794;BME280;63320;50.768;6.724;2022-11-20T06:31:32;99733.88;;;4.21;77.01
74794;BME280;63320;50.768;6.724;2022-11-20T06:33:57;99736.34;;;4.26;76.37
74794;BME280;63320;50.768;6.724;2022-11-20T06:36:23;99742.97;;;4.36;77.03
74794;BME280;63320;50.768;6.724;2022-11-20T06:38:48;99745.53;;;4.65;76.32
74794;BME280;63320;50.768;6.724;2022-11-20T06:41:16;99741.09;;;4.41;77.15
74794;BME280;63320;50.768;6.724;2022-11-20T06:43:42;99744.03;;;4.30;77.52
74794;BME280;63320;50.768;6.724;2022-11-20T06:46:09;99748.47;;;4.55;76.81
74794;BME280;63320;50.768;6.724;2022-11-20T06:48:34;99749.03;;;4.36;77.18
74794;BME280;63320;50.768;6.724;2022-11-20T06:51:02;99757.81;;;4.34;77.75
74794;BME280;63320;50.768;6.724;2022-11-20T06:53:28;99757.00;;;4.32;77.83
74794;BME280;63320;50.768;6.724;2022-11-20T06:55:55;99763.22;;;4.26;77.89
74794;BME280;63320;50.768;6.724;2022-11-20T06:58:22;99759.94;;;4.49;77.31
74794;BME280;63320;50.768;6.724;2022-11-20T07:00:48;99758.31;;;4.17;78.79
74794;BME280;63320;50.768;6.724;2022-11-20T07:03:13;99763.72;;;4.39;78.25
74794;BME280;63320;50.768;6.724;2022-11-20T07:05:39;99756.19;;;4.30;78.53
74794;BME280;63320;50.768;6.724;2022-11-20T07:08:04;99765.69;;;4.31;78.52
74794;BME280;63320;50.768;6.724;2022-11-20T07:10:30;99772.56;;;4.61;77.56
74794;BME280;63320;50.768;6.724;2022-11-20T07:12:55;99772.63;;;4.32;77.46
74794;BME280;63320;50.768;6.724;2022-11-20T07:15:24;99770.09;;;4.29;78.77
74794;BME280;63320;50.768;6.724;2022-11-20T07:17:50;99772.63;;;4.32;77.65
74794;BME280;63320;50.768;6.724;2022-11-20T07:20:15;99774.41;;;4.30;78.53
74794;BME280;63320;50.768;6.724;2022-11-20T07:22:41;99782.25;;;4.28;78.34
74794;BME280;63320;50.768;6.724;2022-11-20T07:25:08;99781.22;;;4.34;78.44
74794;BME280;63320;50.768;6.724;2022-11-20T07:27:34;99772.84;;;4.24;78.44
74794;BME280;63320;50.768;6.724;2022-11-20T07:29:59;99785.19;;;4.47;78.08
74794;BME280;63320;50.768;6.724;2022-11-20T07:32:26;99772.63;;;4.32;77.79
74794;BME280;63320;50.768;6.724;2022-11-20T07:34:52;99780.66;;;4.24;78.22
74794;BME280;63320;50.768;6.724;2022-11-20T07:37:17;99778.25;;;4.16;78.68
74794;BME280;63320;50.768;6.724;2022-11-20T07:39:43;99777.84;;;4.30;78.08
74794;BME280;63320;50.768;6.724;2022-11-20T07:42:08;99773.75;;;4.23;78.20
74794;BME280;63320;50.768;6.724;2022-11-20T07:44:34;99776.81;;;4.36;77.31
74794;BME280;63320;50.768;6.724;2022-11-20T07:47:00;99769.84;;;4.36;77.36
74794;BME280;63320;50.768;6.724;2022-11-20T07:49:26;99769.31;;;4.25;77.11
74794;BME280;63320;50.768;6.724;2022-11-20T07:51:52;99775.75;;;4.43;77.10
74794;BME280;63320;50.768;6.724;2022-11-20T07:54:17;99765.16;;;4.49;77.54
74794;BME280;63320;50.768;6.724;2022-11-20T07:56:43;99770.63;;;4.40;77.70
74794;BME280;63320;50.768;6.724;2022-11-20T07:59:08;99769.38;;;4.53;77.17
74794;BME280;63320;50.768;6.724;2022-11-20T08:01:33;99778.00;;;4.82;76.84
74794;BME280;63320;50.768;6.724;2022-11-20T08:03:59;99771.19;;;4.50;76.85
74794;BME280;63320;50.768;6.724;2022-11-20T08:06:25;99769.69;;;4.43;77.49
74794;BME280;63320;50.768;6.724;2022-11-20T08:08:51;99773.47;;;4.60;76.89
74794;BME280;63320;50.768;6.724;2022-11-20T08:11:16;99768.53;;;4.51;77.29
74794;BME280;63320;50.768;6.724;2022-11-20T08:13:41;99760.66;;;4.82;77.23
74794;BME280;63320;50.768;6.724;2022-11-20T08:16:07;99770.78;;;4.63;76.93
74794;BME280;63320;50.768;6.724;2022-11-20T08:18:32;99765.28;;;4.73;76.92
74794;BME280;63320;50.768;6.724;2022-11-20T08:20:57;99762.91;;;4.65;76.85
74794;BME280;63320;50.768;6.724;2022-11-20T08:23:24;99758.88;;;4.83;76.70
74794;BME280;63320;50.768;6.724;2022-11-20T08:25:50;99753.41;;;4.92;75.90
74794;BME280;63320;50.768;6.724;2022-11-20T08:28:15;99765.69;;;4.87;76.13
74794;BME280;63320;50.768;6.724;2022-11-20T08:30:40;99764.84;;;4.86;76.22
74794;BME280;63320;50.768;6.724;2022-11-20T08:33:08;99771.84;;;4.84;76.19
74794;BME280;63320;50.768;6.724;2022-11-20T08:35:34;99768.97;;;4.93;75.86
74794;BME280;63320;50.768;6.724;2022-11-20T08:38:00;99773.19;;;4.98;75.76
74794;BME280;63320;50.768;6.724;2022-11-20T08:40:26;99768.75;;;5.00;76.30
74794;BME280;63320;50.768;6.724;2022-11-20T08:42:52;99766.72;;;4.81;76.41
74794;BME280;63320;50.768;6.724;2022-11-20T08:45:18;99764.75;;;4.89;77.22
74794;BME280;63320;50.768;6.724;2022-11-20T08:47:44;99768.41;;;5.10;76.11
74794;BME280;63320;50.768;6.724;2022-11-20T08:50:10;99762.56;;;5.04;76.15
74794;BME280;63320;50.768;6.724;2022-11-20T08:52:36;99772.19;;;5.27;75.55
74794;BME280;63320;50.768;6.724;2022-11-20T08:55:03;99766.09;;;5.28;75.68
74794;BME280;63320;50.768;6.724;2022-11-20T08:57:32;99767.69;;;5.05;76.44
74794;BME280;63320;50.768;6.724;2022-11-20T08:59:58;99764.47;;;4.99;76.78
74794;BME280;63320;50.768;6.724;2022-11-20T09:02:23;99765.78;;;4.84;77.15
74794;BME280;63320;50.768;6.724;2022-11-20T09:04:48;99767.47;;;5.13;76.19
74794;BME280;63320;50.768;6.724;2022-11-20T09:07:13;99769.94;;;5.16;75.77
74794;BME280;63320;50.768;6.724;2022-11-20T09:09:39;99763.97;;;5.39;75.55
74794;BME280;63320;50.768;6.724;2022-11-20T09:12:04;99771.03;;;5.35;74.92
74794;BME280;63320;50.768;6.724;2022-11-20T09:14:31;99766.66;;;5.11;76.02
74794;BME280;63320;50.768;6.724;2022-11-20T09:16:56;99764.38;;;5.27;75.88
74794;BME280;63320;50.768;6.724;2022-11-20T09:19:23;99768.28;;;5.40;75.38
74794;BME280;63320;50.768;6.724;2022-11-20T09:21:48;99761.47;;;5.36;75.56
74794;BME280;63320;50.768;6.724;2022-11-20T09:24:13;99752.56;;;5.41;74.78
74794;BME280;63320;50.768;6.724;2022-11-20T09:26:39;99755.16;;;5.43;75.11
74794;BME280;63320;50.768;6.724;2022-11-20T09:29:04;99756.03;;;5.67;74.90
74794;BME280;63320;50.768;6.724;2022-11-20T09:31:31;99752.38;;;5.72;74.11
74794;BME280;63320;50.768;6.724;2022-11-20T09:33:57;99750.19;;;5.60;74.95
74794;BME280;63320;50.768;6.724;2022-11-20T09:36:22;99752.38;;;5.72;74.84
74794;BME280;63320;50.768;6.724;2022-11-20T09:38:48;99741.41;;;5.86;73.83
74794;BME280;63320;50.768;6.724;2022-11-20T09:41:29;99750.44;;;5.78;74.13
74794;BME280;63320;50.768;6.724;2022-11-20T09:44:06;99747.38;;;5.90;74.34
74794;BME280;63320;50.768;6.724;2022-11-20T09:46:41;99749.13;;;6.14;73.61
74794;BME280;63320;50.768;6.724;2022-11-20T09:49:23;99757.38;;;6.02;73.71
74794;BME280;63320;50.768;6.724;2022-11-20T09:51:57;99742.88;;;5.70;74.61
74794;BME280;63320;50.768;6.724;2022-11-20T09:54:29;99749.22;;;5.88;74.21
74794;BME280;63320;50.768;6.724;2022-11-20T09:56:59;99740.91;;;5.77;74.93
74794;BME280;63320;50.768;6.724;2022-11-20T09:59:34;99742.97;;;5.67;74.78
74794;BME280;63320;50.768;6.724;2022-11-20T10:02:12;99732.38;;;5.71;74.10
74794;BME280;63320;50.768;6.724;2022-11-20T10:04:44;99723.31;;;5.82;74.19
74794;BME280;63320;50.768;6.724;2022-11-20T10:07:15;99730.81;;;5.67;74.61
74794;BME280;63320;50.768;6.724;2022-11-20T10:09:49;99728.56;;;5.57;75.30
74794;BME280;63320;50.768;6.724;2022-11-20T10:12:20;99713.69;;;5.84;74.55
74794;BME280;63320;50.768;6.724;2022-11-20T10:15:01;99714.25;;;5.93;74.09
74794;BME280;63320;50.768;6.724;2022-11-20T10:17:53;99714.69;;;6.05;73.68
74794;BME280;63320;50.768;6.724;2022-11-20T10:20:28;99707.09;;;5.99;73.71
74794;BME280;63320;50.768;6.724;2022-11-20T10:23:09;99712.09;;;5.80;74.82
74794;BME280;63320;50.768;6.724;2022-11-20T10:25:45;99701.59;;;5.81;74.24
74794;BME280;63320;50.768;6.724;2022-11-20T10:28:27;99702.28;;;5.86;73.94
74794;BME280;63320;50.768;6.724;2022-11-20T10:30:56;99688.84;;;5.97;73.60
74794;BME280;63320;50.768;6.724;2022-11-20T10:33:27;99692.59;;;5.90;73.74
74794;BME280;63320;50.768;6.724;2022-11-20T10:36:04;99686.47;;;5.91;73.91
74794;BME280;63320;50.768;6.724;2022-11-20T10:38:36;99684.53;;;5.97;74.25
74794;BME280;63320;50.768;6.724;2022-11-20T10:41:03;99685.53;;;5.93;74.20
74794;BME280;63320;50.768;6.724;2022-11-20T10:43:33;99677.16;;;6.07;73.90
74794;BME280;63320;50.768;6.724;2022-11-20T10:46:02;99671.94;;;6.07;73.79
74794;BME280;63320;50.768;6.724;2022-11-20T10:48:31;99671.94;;;6.07;74.05
74794;BME280;63320;50.768;6.724;2022-11-20T10:51:03;99666.63;;;6.10;74.00
74794;BME280;63320;50.768;6.724;2022-11-20T10:53:40;99672.41;;;6.18;73.29
74794;BME280;63320;50.768;6.724;2022-11-20T10:56:15;99666.69;;;6.09;74.31
74794;BME280;63320;50.768;6.724;2022-11-20T10:58:46;99664.25;;;6.26;73.39
74794;BME280;63320;50.768;6.724;2022-11-20T11:01:16;99662.66;;;6.00;74.41
74794;BME280;63320;50.768;6.724;2022-11-20T11:03:43;99656.50;;;6.03;73.91
74794;BME280;63320;50.768;6.724;2022-11-20T11:06:14;99651.53;;;5.95;74.19
74794;BME280;63320;50.768;6.724;2022-11-20T11:08:43;99647.31;;;5.91;74.72
74794;BME280;63320;50.768;6.724;2022-11-20T11:11:18;99638.41;;;5.98;74.23
74794;BME280;63320;50.768;6.724;2022-11-20T11:13:45;99631.59;;;5.94;74.42
74794;BME280;63320;50.768;6.724;2022-11-20T11:16:20;99620.81;;;6.03;74.27
74794;BME280;63320;50.768;6.724;2022-11-20T11:18:47;99623.91;;;6.13;73.87
74794;BME280;63320;50.768;6.724;2022-11-20T11:21:13;99619.72;;;6.09;74.09
74794;BME280;63320;50.768;6.724;2022-11-20T11:23:40;99611.06;;;6.07;74.03
74794;BME280;63320;50.768;6.724;2022-11-20T11:26:18;99610.41;;;6.02;74.94
74794;BME280;63320;50.768;6.724;2022-11-20T11:28:53;99610.53;;;6.20;74.61
74794;BME280;63320;50.768;6.724;2022-11-20T11:31:22;99595.53;;;6.26;73.96
74794;BME280;63320;50.768;6.724;2022-11-20T11:33:49;99603.78;;;6.15;74.22
74794;BME280;63320;50.768;6.724;2022-11-20T11:36:18;99594.69;;;6.25;74.07
74794;BME280;63320;50.768;6.724;2022-11-20T11:38:44;99591.28;;;6.23;74.38
74794;BME280;63320;50.768;6.724;2022-11-20T11:41:14;99588.09;;;6.37;73.49
74794;BME280;63320;50.768;6.724;2022-11-20T11:43:50;99583.06;;;6.32;73.90
74794;BME280;63320;50.768;6.724;2022-11-20T11:46:29;99588.09;;;6.37;74.22
74794;BME280;63320;50.768;6.724;2022-11-20T11:48:59;99574.00;;;6.41;73.69
74794;BME280;63320;50.768;6.724;2022-11-20T11:51:28;99568.16;;;6.56;73.76
74794;BME280;63320;50.768;6.724;2022-11-20T11:53:56;99566.72;;;6.49;73.80
74794;BME280;63320;50.768;6.724;2022-11-20T11:56:23;99570.00;;;6.54;73.73
74794;BME280;63320;50.768;6.724;2022-11-20T11:58:51;99564.28;;;6.44;74.43
74794;BME280;63320;50.768;6.724;2022-11-20T12:01:25;99553.31;;;6.57;73.79
74794;BME280;63320;50.768;6.724;2022-11-20T12:03:55;99548.81;;;6.60;73.80
74794;BME280;63320;50.768;6.724;2022-11-20T12:06:26;99546.66;;;6.70;73.72
74794;BME280;63320;50.768;6.724;2022-11-20T12:08:56;99542.63;;;6.63;73.88
74794;BME280;63320;50.768;6.724;2022-11-20T12:11:31;99546.13;;;6.82;73.47
74794;BME280;63320;50.768;6.724;2022-11-20T12:14:01;99543.22;;;6.69;73.14
74794;BME280;63320;50.768;6.724;2022-11-20T12:16:30;99541.44;;;6.49;74.11
74794;BME280;63320;50.768;6.724;2022-11-20T12:18:59;99537.47;;;6.61;73.91
74794;BME280;63320;50.768;6.724;2022-11-20T12:21:31;99532.63;;;6.32;74.92
74794;BME280;63320;50.768;6.724;2022-11-20T12:27:00;99529.31;;;6.48;74.55
74794;BME280;63320;50.768;6.724;2022-11-20T12:29:37;99520.63;;;6.48;74.92
74794;BME280;63320;50.768;6.724;2022-11-20T12:32:31;99521.78;;;6.41;75.35
74794;BME280;63320;50.768;6.724;2022-11-20T12:35:07;99513.63;;;6.69;74.72
74794;BME280;63320;50.768;6.724;2022-11-20T12:37:46;99513.09;;;6.61;74.72
74794;BME280;63320;50.768;6.724;2022-11-20T12:40:27;99497.69;;;6.75;74.19
74794;BME280;63320;50.768;6.724;2022-11-20T12:43:01;99494.16;;;6.76;74.64
74794;BME280;63320;50.768;6.724;2022-11-20T12:45:46;99494.69;;;6.64;74.64
74794;BME280;63320;50.768;6.724;2022-11-20T12:49:00;99494.06;;;6.78;74.42
74794;BME280;63320;50.768;6.724;2022-11-20T12:51:47;99489.50;;;6.83;74.39
74794;BME280;63320;50.768;6.724;2022-11-20T12:54:40;99490.69;;;6.75;75.05
74794;BME280;63320;50.768;6.724;2022-11-20T12:57:13;99483.22;;;6.87;74.59
74794;BME280;63320;50.768;6.724;2022-11-20T12:59:54;99483.50;;;6.81;74.77
74794;BME280;63320;50.768;6.724;2022-11-20T13:02:27;99479.97;;;6.82;74.62
74794;BME280;63320;50.768;6.724;2022-11-20T13:05:15;99475.81;;;6.96;74.52
74794;BME280;63320;50.768;6.724;2022-11-20T13:07:43;99473.88;;;6.81;75.38
74794;BME280;63320;50.768;6.724;2022-11-20T13:10:16;99469.09;;;6.91;74.87
74794;BME280;63320;50.768;6.724;2022-11-20T13:12:46;99459.84;;;6.84;75.03
74794;BME280;63320;50.768;6.724;2022-11-20T13:15:22;99451.38;;;6.79;75.25
74794;BME280;63320;50.768;6.724;2022-11-20T13:17:55;99444.88;;;6.68;75.82